Terminal Aerodrome Forecast
Issued by NWS

Home | Current Version | Previous Version | Text Only | Print | Product List | Glossary On
Versions: 1 2 3 4 5 6 7 8 9 10 11 12 13 14 15 16 17 18 19
000
FTUS46 KLOX 221700
TAFOXR
TAF
KOXR 221728Z 2218/2318 VRB03KT P6SM SKC
     FM222000 27010KT P6SM SKC
     FM230400 VRB03KT P6SM SKC
     FM231100 VRB03KT P6SM OVC007
     FM231700 27006KT P6SM SCT010=

USA.gov is the U.S. government's official web portal to all federal, state and local government web resources and services.